createdAt,value
2023-03-18T00:00:32.660Z,-28.1
2023-03-18T00:02:33.621Z,-27.8
2023-03-18T00:04:35.366Z,-28
2023-03-18T00:06:36.762Z,-28
2023-03-18T00:08:38.287Z,-27.9
2023-03-18T00:10:40.176Z,-27.9
2023-03-18T00:16:44.606Z,-27.9
2023-03-18T00:18:45.625Z,-27.7
2023-03-18T00:20:47.405Z,-27.9
2023-03-18T00:22:49.006Z,-28
2023-03-18T00:24:50.254Z,-28
2023-03-18T00:26:51.941Z,-28
2023-03-18T00:28:53.670Z,-28.1
2023-03-18T00:30:55.093Z,-28
2023-03-18T00:32:56.402Z,-27.8
2023-03-18T00:34:57.387Z,-27.8
2023-03-18T00:36:59.322Z,-27.8
2023-03-18T00:39:00.591Z,-27.7
2023-03-18T00:41:01.774Z,-28
2023-03-18T00:43:03.064Z,-28
2023-03-18T00:45:04.965Z,-27.8
2023-03-18T00:47:06.868Z,-27.9
2023-03-18T00:49:08.749Z,-28
2023-03-18T00:51:09.820Z,-28.2
2023-03-18T00:53:11.099Z,-27.8
2023-03-18T00:55:12.585Z,-28
2023-03-18T00:57:13.698Z,-27.8
2023-03-18T00:59:15.605Z,-27.5
2023-03-18T01:03:18.144Z,-28
2023-03-18T01:05:20.020Z,-27.8
2023-03-18T01:07:21.726Z,-27.8
2023-03-18T01:09:23.462Z,-28
2023-03-18T01:13:27.223Z,-27.8
2023-03-18T01:15:28.423Z,-27.8
2023-03-18T01:17:30.290Z,-27.8
2023-03-18T01:19:31.820Z,-27.9
2023-03-18T01:21:33.419Z,-27.6
2023-03-18T01:23:35.270Z,-27.9
2023-03-18T01:25:37.121Z,-27.8
2023-03-18T01:27:38.302Z,-27.8
2023-03-18T01:29:40.182Z,-27.9
2023-03-18T01:31:41.623Z,-27.7
2023-03-18T01:33:43.436Z,-27.9
2023-03-18T01:35:45.071Z,-27.9
2023-03-18T01:37:46.483Z,-27.8
2023-03-18T01:39:47.889Z,-27.7
2023-03-18T01:41:49.579Z,-27.7
2023-03-18T01:45:52.911Z,-27.9
2023-03-18T01:47:54.368Z,-27.8
2023-03-18T01:51:57.776Z,-27.9
2023-03-18T01:56:00.706Z,-28
2023-03-18T01:58:02.535Z,-27.7
2023-03-18T02:00:03.837Z,-27.8
2023-03-18T02:02:05.305Z,-27.5
2023-03-18T02:04:06.577Z,-27.9
2023-03-18T02:06:07.810Z,-27.8
2023-03-18T02:08:09.559Z,-27.8
2023-03-18T02:10:10.689Z,-28
2023-03-18T02:12:12.132Z,-27.8
2023-03-18T02:14:13.309Z,-27.8
2023-03-18T02:16:15.153Z,-27.9
2023-03-18T02:18:16.996Z,-27.7
2023-03-18T02:20:18.057Z,-28
2023-03-18T02:22:19.683Z,-27.8
2023-03-18T02:24:21.335Z,-27.8
2023-03-18T02:28:23.869Z,-27.6
2023-03-18T02:30:25.511Z,-27.9
2023-03-18T02:32:26.806Z,-28
2023-03-18T02:34:28.499Z,-27.9
2023-03-18T02:36:30.278Z,-27.8
2023-03-18T02:40:33.744Z,-27.9
2023-03-18T02:42:35.110Z,-28.2
2023-03-18T02:44:36.279Z,-27.9
2023-03-18T02:46:37.837Z,-28
2023-03-18T02:48:39.278Z,-27.7
2023-03-18T02:50:42.436Z,-27.7
2023-03-18T02:52:42.694Z,-27.7
2023-03-18T02:54:44.591Z,-27.7
2023-03-18T02:56:46.239Z,-28
2023-03-18T02:58:48.337Z,-27.8
2023-03-18T03:00:49.643Z,-27.9
2023-03-18T03:02:51.081Z,-28
2023-03-18T03:04:52.500Z,-27.8
2023-03-18T03:06:54.065Z,-27.8
2023-03-18T03:08:55.998Z,-27.9
2023-03-18T03:10:57.324Z,-27.9
2023-03-18T03:12:58.315Z,-27.9
2023-03-18T03:14:59.683Z,-27.7
2023-03-18T03:17:01.259Z,-27.9
2023-03-18T03:19:02.478Z,-27.6
2023-03-18T03:21:04.264Z,-27.6
2023-03-18T03:23:05.723Z,-27.8
2023-03-18T03:25:07.396Z,-27.8
2023-03-18T03:27:08.915Z,-27.8
2023-03-18T03:29:10.343Z,-27.8
2023-03-18T03:31:12.226Z,-27.8
2023-03-18T03:33:13.405Z,-27.6
2023-03-18T03:39:17.378Z,-28
2023-03-18T03:41:18.994Z,-27.7
2023-03-18T03:43:20.883Z,-27.9
2023-03-18T03:45:22.335Z,-27.8
2023-03-18T03:47:23.762Z,-27.8
2023-03-18T03:49:24.846Z,-27.9
2023-03-18T03:53:27.520Z,-27.7
2023-03-18T03:55:29.352Z,-27.7
2023-03-18T03:57:31.302Z,-28
2023-03-18T03:59:32.881Z,-28
2023-03-18T04:03:35.784Z,-27.9
2023-03-18T04:05:36.950Z,-27.7
2023-03-18T04:09:39.779Z,-27.8
2023-03-18T04:11:41.699Z,-27.4
2023-03-18T04:13:43.381Z,-27.8
2023-03-18T04:15:44.618Z,-27.3
2023-03-18T04:21:49.553Z,-27.9
2023-03-18T04:23:51.004Z,-27.8
2023-03-18T04:25:52.647Z,-27.9
2023-03-18T04:27:54.487Z,-27.7
2023-03-18T04:28:38.423Z,-28.2
2023-03-18T04:30:39.897Z,-27.7
2023-03-18T04:32:41.394Z,-27.8
2023-03-18T04:34:43.288Z,-27.8
2023-03-18T04:36:45.037Z,-28.2
2023-03-18T04:42:49.481Z,-27.9
2023-03-18T04:44:51.417Z,-28
2023-03-18T04:46:53.339Z,-27.9
2023-03-18T04:48:55.018Z,-27.9
2023-03-18T04:50:56.242Z,-27.8
2023-03-18T04:52:57.362Z,-27.8
2023-03-18T04:54:58.376Z,-27.7
2023-03-18T04:56:59.482Z,-27.9
2023-03-18T04:59:00.948Z,-28
2023-03-18T05:01:02.303Z,-27.7
2023-03-18T05:03:03.330Z,-27.8
2023-03-18T05:05:04.704Z,-28
2023-03-18T05:07:06.185Z,-27.6
2023-03-18T05:09:07.226Z,-28
2023-03-18T05:11:08.240Z,-27.9
2023-03-18T05:13:09.950Z,-27.8
2023-03-18T05:15:12.021Z,-27.8
2023-03-18T05:17:12.884Z,-27.7
2023-03-18T05:19:14.511Z,-27.7
2023-03-18T05:21:15.806Z,-27.9
2023-03-18T05:23:17.585Z,-27.9
2023-03-18T05:25:18.754Z,-28
2023-03-18T05:27:20.683Z,-27.8
2023-03-18T05:29:22.136Z,-27.8
2023-03-18T05:31:23.411Z,-27.5
2023-03-18T05:35:26.143Z,-28
2023-03-18T05:37:27.301Z,-27.9
2023-03-18T05:41:30.630Z,-27.9
2023-03-18T05:43:31.913Z,-27.6
2023-03-18T05:45:33.453Z,-27.9
2023-03-18T05:47:34.341Z,-27.8
2023-03-18T05:49:35.419Z,-28.2
2023-03-18T05:51:37.323Z,-27.7
2023-03-18T05:55:40.171Z,-27.8
2023-03-18T05:57:41.185Z,-27.9
2023-03-18T05:59:42.914Z,-27.8
2023-03-18T06:01:44.460Z,-28.2
2023-03-18T06:03:46.034Z,-27.9
2023-03-18T06:05:47.984Z,-28
2023-03-18T06:07:49.435Z,-27.5
2023-03-18T06:09:51.315Z,-27.8
2023-03-18T06:11:52.941Z,-27.8
2023-03-18T06:13:54.861Z,-28
2023-03-18T06:17:57.448Z,-28.2
2023-03-18T06:19:58.824Z,-27.7
2023-03-18T06:22:00.646Z,-27.8
2023-03-18T06:24:02.395Z,-27.9
2023-03-18T06:26:03.387Z,-27.9
2023-03-18T06:28:05.182Z,-27.9
2023-03-18T06:30:06.352Z,-27.9
2023-03-18T06:32:07.706Z,-27.9
2023-03-18T06:34:09.376Z,-27.8
2023-03-18T06:40:14.311Z,-27.9
2023-03-18T06:42:15.415Z,-28
2023-03-18T06:44:17.203Z,-28
2023-03-18T06:46:18.348Z,-27.8
2023-03-18T06:48:19.212Z,-27.7
2023-03-18T06:50:20.441Z,-28
2023-03-18T06:54:23.747Z,-27.9
2023-03-18T06:56:25.508Z,-27.9
2023-03-18T07:00:28.721Z,-28.1
2023-03-18T07:02:30.527Z,-27.8
2023-03-18T07:04:31.940Z,-27.9
2023-03-18T07:06:32.986Z,-27.8
2023-03-18T07:10:35.604Z,-27.8
2023-03-18T07:12:36.814Z,-6
2023-03-18T07:14:37.943Z,-9.6
2023-03-18T07:16:38.916Z,-3.3
2023-03-18T07:20:42.208Z,-2.2
2023-03-18T07:22:43.218Z,-0.9
2023-03-18T07:24:44.777Z,-9
2023-03-18T07:26:46.377Z,6.9
2023-03-18T07:30:49.821Z,11.3
2023-03-18T07:32:51.147Z,9.39
2023-03-18T07:34:52.157Z,17.79
2023-03-18T07:36:53.310Z,25.8
2023-03-18T07:38:54.667Z,24
2023-03-18T07:40:55.545Z,82.9
2023-03-18T07:42:57.389Z,82.5
2023-03-18T07:44:58.837Z,82.8
2023-03-18T07:47:00.263Z,82.7
2023-03-18T07:49:01.448Z,82.8
2023-03-18T07:53:04.127Z,82.3
2023-03-18T07:55:05.294Z,82.2
2023-03-18T07:57:06.439Z,82
2023-03-18T07:59:07.283Z,81.3
2023-03-18T08:05:11.426Z,79.69
2023-03-18T08:07:12.595Z,79.19
2023-03-18T08:09:14.254Z,78.6
2023-03-18T08:11:15.246Z,77.9
2023-03-18T08:13:16.356Z,77.4
2023-03-18T08:15:18.107Z,77.1
2023-03-18T08:19:20.181Z,76.4
2023-03-18T08:21:21.742Z,75.4
2023-03-18T08:23:23.115Z,75
2023-03-18T08:25:24.174Z,74.5
2023-03-18T08:27:25.037Z,73.9
2023-03-18T08:29:26.638Z,73.4
2023-03-18T08:31:27.502Z,72.9
2023-03-18T08:33:29.012Z,72.3
2023-03-18T08:35:30.568Z,71.8
2023-03-18T08:37:31.961Z,71.69
2023-03-18T08:41:34.521Z,69.69
2023-03-18T08:45:37.219Z,68.4
2023-03-18T08:47:38.241Z,67.4
2023-03-18T08:49:39.464Z,67
2023-03-18T08:51:41.103Z,65.8
2023-03-18T08:53:42.039Z,66.3
2023-03-18T08:55:43.241Z,62.6
2023-03-18T08:57:44.833Z,64.19
2023-03-18T09:01:47.218Z,63.5
2023-03-18T09:03:48.191Z,58.8
2023-03-18T09:05:48.962Z,58.5
2023-03-18T09:07:50.613Z,57.6
2023-03-18T09:09:52.132Z,56.3
2023-03-18T09:11:53.049Z,57.9
2023-03-18T09:13:54.518Z,57.4
2023-03-18T09:18:10.214Z,54.2
2023-03-18T09:19:57.592Z,52.9
2023-03-18T09:21:59.822Z,52.3
2023-03-18T09:24:00.626Z,49.6
2023-03-18T09:26:01.905Z,46.5
2023-03-18T09:28:03.369Z,41.5
2023-03-18T09:30:06.339Z,38.2
2023-03-18T09:32:05.859Z,35.8
2023-03-18T09:34:06.803Z,33.59
2023-03-18T09:36:07.656Z,31.1
2023-03-18T09:38:09.099Z,29.9
2023-03-18T09:40:10.787Z,27.4
2023-03-18T09:42:12.465Z,26.9
2023-03-18T09:44:13.504Z,25.9
2023-03-18T09:46:14.535Z,24.4
2023-03-18T09:48:16.610Z,23.5
2023-03-18T09:50:18.341Z,22.2
2023-03-18T09:52:19.937Z,22.2
2023-03-18T09:54:21.613Z,20.6
2023-03-18T09:56:22.420Z,19.7
2023-03-18T10:02:26.209Z,18.6
2023-03-18T10:04:27.156Z,16
2023-03-18T10:06:28.531Z,14.7
2023-03-18T10:08:30.069Z,13.8
2023-03-18T10:10:31.584Z,13.8
2023-03-18T10:12:32.500Z,13.4
2023-03-18T10:14:36.144Z,11.7
2023-03-18T10:16:35.846Z,10.7
2023-03-18T10:18:37.370Z,9.5
2023-03-18T10:22:39.937Z,8.39
2023-03-18T10:26:41.825Z,-28.6
2023-03-18T10:28:43.451Z,-28.6
2023-03-18T10:32:50.104Z,-28.6
2023-03-18T10:34:48.057Z,-28.7
2023-03-18T10:36:49.736Z,-28
2023-03-18T10:38:51.048Z,-29
2023-03-18T10:42:53.488Z,-28
2023-03-18T10:44:55.242Z,-27.8
2023-03-18T10:46:56.176Z,-27.9
2023-03-18T10:48:57.780Z,-28
2023-03-18T10:50:58.646Z,-27.8
2023-03-18T10:53:00.165Z,-27.9
2023-03-18T10:55:01.390Z,-27.8
2023-03-18T10:57:02.544Z,-27.9
2023-03-18T10:59:04.251Z,-28
2023-03-18T11:01:05.877Z,-28
2023-03-18T11:03:07.701Z,-27.9
2023-03-18T11:05:08.577Z,-27.9
2023-03-18T11:07:09.537Z,-28.3
2023-03-18T11:09:11.648Z,-27.8
2023-03-18T11:11:13.135Z,-27.8
2023-03-18T11:13:58.333Z,-28.5
2023-03-18T11:15:59.372Z,-28.6
2023-03-18T11:18:00.405Z,-56
2023-03-18T11:22:02.782Z,-28.8
2023-03-18T11:24:04.039Z,-28.9
2023-03-18T11:26:05.237Z,-28.8
2023-03-18T11:28:06.234Z,-28
2023-03-18T11:30:07.675Z,-28.7
2023-03-18T11:32:09.862Z,-27.8
2023-03-18T11:36:11.488Z,-27.8
2023-03-18T11:38:12.926Z,-28.3
2023-03-18T11:40:14.024Z,-28
2023-03-18T11:42:15.607Z,-55.4
2023-03-18T11:44:17.028Z,-27.7
2023-03-18T11:46:18.520Z,-27.7
2023-03-18T11:48:19.750Z,-27.9
2023-03-18T11:50:21.471Z,-27.7
2023-03-18T11:52:22.558Z,-27.9
2023-03-18T11:54:24.325Z,-55.2
2023-03-18T11:58:26.685Z,-27.8
2023-03-18T12:00:27.866Z,-27.8
2023-03-18T12:02:29.500Z,-28
2023-03-18T12:04:30.787Z,-28.1
2023-03-18T12:08:32.918Z,-27.6
2023-03-18T12:10:34.762Z,-55.4
2023-03-18T12:12:35.472Z,-28.1
2023-03-18T12:14:37.167Z,-27.8
2023-03-18T12:16:38.734Z,-55.2
2023-03-18T12:18:42.754Z,-28.8
2023-03-18T12:20:41.657Z,-56.2
2023-03-18T12:22:42.988Z,-55.1
2023-03-18T12:24:44.760Z,-27.9
2023-03-18T12:26:46.019Z,-55.3
2023-03-18T12:30:48.333Z,-28
2023-03-18T12:32:49.708Z,-27.9
2023-03-18T12:34:50.819Z,-28
2023-03-18T12:36:51.980Z,-55.2
2023-03-18T12:40:54.905Z,-27.7
2023-03-18T12:42:56.358Z,-28
2023-03-18T12:44:57.823Z,-27.9
2023-03-18T12:46:58.662Z,-27.7
2023-03-18T12:49:10.088Z,-28
2023-03-18T12:53:04.134Z,-28.1
2023-03-18T12:55:05.640Z,-28
2023-03-18T12:57:06.660Z,-55.5
2023-03-18T12:59:07.565Z,-27.6
2023-03-18T13:01:09.335Z,-28.1
2023-03-18T13:03:10.869Z,-27.8
2023-03-18T13:07:12.669Z,-28.1
2023-03-18T13:09:14.316Z,-55.4
2023-03-18T13:11:16.084Z,-28
2023-03-18T13:13:17.551Z,-55.1
2023-03-18T13:19:21.592Z,-28
2023-03-18T13:21:22.610Z,-28
2023-03-18T13:23:23.469Z,-28.1
2023-03-18T13:25:25.259Z,-55
2023-03-18T13:27:26.905Z,-27.8
2023-03-18T13:29:28.566Z,-27.7
2023-03-18T13:31:29.481Z,-28
2023-03-18T13:33:31.050Z,-28
2023-03-18T13:35:32.609Z,-55.7
2023-03-18T13:37:33.808Z,-55.5
2023-03-18T13:39:34.931Z,-27.9
2023-03-18T13:41:36.283Z,-27.5
2023-03-18T13:43:37.738Z,-55.5
2023-03-18T13:45:38.670Z,-28
2023-03-18T13:47:39.870Z,-27.7
2023-03-18T13:49:41.021Z,-27.8
2023-03-18T13:51:42.342Z,-27.7
2023-03-18T13:53:43.910Z,-27.9
2023-03-18T13:55:45.080Z,-55.5
2023-03-18T13:57:46.684Z,-55.4
2023-03-18T13:59:47.457Z,-55.4
2023-03-18T14:01:48.582Z,-27.9
2023-03-18T14:03:49.418Z,-27.9
2023-03-18T14:05:50.914Z,-27.9
2023-03-18T14:07:51.748Z,-27.9
2023-03-18T14:09:52.760Z,-27.7
2023-03-18T14:11:54.055Z,-27.7
2023-03-18T14:13:55.353Z,-27.9
2023-03-18T14:15:56.712Z,-27.8
2023-03-18T14:17:57.748Z,-55.5
2023-03-18T14:19:58.924Z,-27.8
2023-03-18T14:22:00.357Z,-27.8
2023-03-18T14:24:01.651Z,-55.5
2023-03-18T14:26:02.441Z,-55.1
2023-03-18T14:28:03.609Z,-28
2023-03-18T14:34:07.739Z,-27.7
2023-03-18T14:36:10.199Z,-27.7
2023-03-18T14:38:10.945Z,-27.9
2023-03-18T14:40:12.679Z,-55.3
2023-03-18T14:42:13.818Z,-28.3
2023-03-18T14:44:14.963Z,-28.2
2023-03-18T14:48:17.303Z,-27.9
2023-03-18T14:50:18.262Z,-27.9
2023-03-18T14:52:19.216Z,-55.4
2023-03-18T14:54:20.538Z,-27.9
2023-03-18T15:00:25.200Z,-27.9
2023-03-18T15:02:35.476Z,-28.1
2023-03-18T15:04:27.298Z,-55.3
2023-03-18T15:06:28.952Z,-27.9
2023-03-18T15:08:44.818Z,-27.7
2023-03-18T15:10:31.439Z,-28
2023-03-18T15:12:32.276Z,-28
2023-03-18T15:14:33.652Z,-27.9
2023-03-18T15:16:34.633Z,-28.2
2023-03-18T15:18:36.345Z,-27.9
2023-03-18T15:20:37.869Z,-27.9
2023-03-18T15:22:39.131Z,-28
2023-03-18T15:24:40.173Z,-27.8
2023-03-18T15:26:41.052Z,-28.3
2023-03-18T15:28:42.615Z,-28.1
2023-03-18T15:30:44.417Z,-27.9
2023-03-18T15:32:45.484Z,66.6
2023-03-18T15:34:46.687Z,64.9
2023-03-18T15:36:47.650Z,63.8
2023-03-18T15:38:48.779Z,62.9
2023-03-18T15:40:50.074Z,2.09
2023-03-18T15:42:51.853Z,-9.39
2023-03-18T15:44:53.216Z,-6.4
2023-03-18T15:46:54.962Z,-10.3
2023-03-18T15:48:56.208Z,2
2023-03-18T15:50:57.056Z,-42.3
2023-03-18T15:52:58.596Z,-15.5
2023-03-18T15:54:59.663Z,-15.1
2023-03-18T15:57:00.752Z,-9.6
2023-03-18T15:59:02.591Z,-39.4
2023-03-18T16:01:03.698Z,-19.9
2023-03-18T16:03:05.125Z,-22.6
2023-03-18T16:05:06.384Z,-21.6
2023-03-18T16:07:08.017Z,-14
2023-03-18T16:09:09.291Z,-14.5
2023-03-18T16:15:13.777Z,-13.7
2023-03-18T16:17:14.682Z,-14.2
2023-03-18T16:19:16.269Z,-17.5
2023-03-18T16:21:17.212Z,-27
2023-03-18T16:23:18.798Z,-27.4
2023-03-18T16:25:20.221Z,-27.9
2023-03-18T16:27:21.870Z,-28
2023-03-18T16:29:23.595Z,-28.3
2023-03-18T16:31:24.958Z,-27.6
2023-03-18T16:35:27.651Z,-28
2023-03-18T16:37:28.818Z,-28
2023-03-18T16:39:29.952Z,-28.1
2023-03-18T16:41:31.767Z,-28.2
2023-03-18T16:45:35.347Z,-27.9
2023-03-18T16:47:36.348Z,-28.2
2023-03-18T16:49:38.009Z,-28
2023-03-18T16:51:39.522Z,-53.7
2023-03-18T16:57:43.451Z,-27.8
2023-03-18T16:59:44.953Z,-28.2
2023-03-18T17:01:46.666Z,-28.1
2023-03-18T17:03:47.654Z,-27.9
2023-03-18T17:05:49.421Z,-55.1
2023-03-18T17:07:51.152Z,-27.9
2023-03-18T17:11:54.338Z,-28.2
2023-03-18T17:13:56.806Z,-27.9
2023-03-18T17:15:58.269Z,-27.9
2023-03-18T17:17:59.167Z,-28.1
2023-03-18T17:24:02.524Z,-28
2023-03-18T17:26:03.846Z,-27.9
2023-03-18T17:28:05.678Z,-28.4
2023-03-18T17:30:07.145Z,-27.8
2023-03-18T17:32:11.157Z,-27.8
2023-03-18T17:34:10.058Z,-27.9
2023-03-18T17:36:10.922Z,-28
2023-03-18T17:38:14.396Z,-28.3
2023-03-18T17:40:14.126Z,-27.9
2023-03-18T17:42:15.583Z,-27.9
2023-03-18T17:44:16.505Z,-27.8
2023-03-18T17:46:17.977Z,-28
2023-03-18T17:48:19.414Z,-27.8
2023-03-18T17:50:20.762Z,-28
2023-03-18T17:52:22.531Z,-27.9
2023-03-18T17:54:24.014Z,-27.9
2023-03-18T17:56:25.198Z,-27.8
2023-03-18T17:58:27.025Z,-27.8
2023-03-18T18:01:12.170Z,-28.3
2023-03-18T18:05:15.254Z,-28
2023-03-18T18:07:16.882Z,-28
2023-03-18T18:09:18.281Z,-27.7
2023-03-18T18:11:20.054Z,-27.8
2023-03-18T18:17:24.448Z,-28.4
2023-03-18T18:19:25.697Z,-28.2
2023-03-18T18:21:27.423Z,-27.8
2023-03-18T18:23:28.935Z,-28.2
2023-03-18T18:25:30.113Z,-27.8
2023-03-18T18:27:31.455Z,-27.8
2023-03-18T18:29:34.921Z,-27.9
2023-03-18T18:31:34.781Z,-27.9
2023-03-18T18:33:36.185Z,-27.9
2023-03-18T18:35:37.960Z,-27.8
2023-03-18T18:37:39.549Z,-28.2
2023-03-18T18:39:40.739Z,-28
2023-03-18T18:41:41.957Z,-28.2
2023-03-18T18:43:43.287Z,-28.2
2023-03-18T18:45:45.093Z,-28.2
2023-03-18T18:47:46.011Z,-28
2023-03-18T18:49:47.738Z,-28.1
2023-03-18T18:51:49.307Z,-27.9
2023-03-18T18:53:50.269Z,-28.2
2023-03-18T18:55:51.173Z,-28
2023-03-18T18:57:52.629Z,-27.8
2023-03-18T18:59:53.678Z,-28.3
2023-03-18T19:01:54.949Z,-28.4
2023-03-18T19:03:56.635Z,-28
2023-03-18T19:05:57.736Z,-27.8
2023-03-18T19:08:00.557Z,-28
2023-03-18T19:10:00.751Z,-28
2023-03-18T19:16:04.226Z,-28.3
2023-03-18T19:18:05.183Z,-27.9
2023-03-18T19:20:06.856Z,-28.4
2023-03-18T19:22:08.030Z,-28
2023-03-18T19:24:09.449Z,-27.9
2023-03-18T19:26:10.743Z,-28
2023-03-18T19:30:13.681Z,-28.2
2023-03-18T19:32:15.025Z,-28
2023-03-18T19:34:16.667Z,-28.4
2023-03-18T19:36:18.137Z,-27.9
2023-03-18T19:42:22.054Z,-28.3
2023-03-18T19:44:23.617Z,-28.2
2023-03-18T19:46:25.187Z,-28.2
2023-03-18T19:48:26.870Z,-28.2
2023-03-18T19:50:28.408Z,-28.2
2023-03-18T19:52:30.123Z,-28.2
2023-03-18T19:56:32.722Z,-28.1
2023-03-18T19:58:34.501Z,-28
2023-03-18T20:00:35.664Z,-28.2
2023-03-18T20:02:36.837Z,-28.1
2023-03-18T20:04:38.567Z,-28
2023-03-18T20:06:40.408Z,-28.3
2023-03-18T20:08:41.878Z,-28.2
2023-03-18T20:10:43.057Z,-27.8
2023-03-18T20:12:44.747Z,-28.1
2023-03-18T20:14:46.624Z,-28
2023-03-18T20:16:47.986Z,-28.3
2023-03-18T20:18:49.404Z,-28.3
2023-03-18T20:20:50.728Z,-28.1
2023-03-18T20:24:53.504Z,-28.2
2023-03-18T20:28:56.919Z,-27.8
2023-03-18T20:30:58.070Z,-27.9
2023-03-18T20:32:59.116Z,-28.2
2023-03-18T20:35:03.346Z,-28.1
2023-03-18T20:39:03.844Z,-28
2023-03-18T20:41:05.491Z,-28
2023-03-18T20:43:06.595Z,-28.1
2023-03-18T20:45:08.406Z,-28
2023-03-18T20:47:10.086Z,-28
2023-03-18T20:49:11.175Z,-28.2
2023-03-18T20:51:12.272Z,-28
2023-03-18T20:53:14.139Z,-28.4
2023-03-18T20:55:15.970Z,-28.2
2023-03-18T20:57:16.984Z,-28.3
2023-03-18T20:59:18.814Z,-28.3
2023-03-18T21:01:20.278Z,-28
2023-03-18T21:03:21.395Z,-28
2023-03-18T21:05:22.517Z,-28
2023-03-18T21:07:23.867Z,-28.2
2023-03-18T21:09:25.345Z,-28
2023-03-18T21:11:27.258Z,-28.3
2023-03-18T21:13:29.147Z,-28
2023-03-18T21:15:30.295Z,-28.3
2023-03-18T21:17:31.942Z,-28
2023-03-18T21:23:36.433Z,-28.2
2023-03-18T21:25:37.550Z,-28.3
2023-03-18T21:27:39.267Z,-27.9
2023-03-18T21:29:40.720Z,-28.4
2023-03-18T21:31:42.580Z,-28.2
2023-03-18T21:33:43.756Z,-28.4
2023-03-18T21:35:45.079Z,-28.5
2023-03-18T21:37:47.013Z,-28.6
2023-03-18T21:39:48.480Z,-28.6
2023-03-18T21:41:49.610Z,-28.5
2023-03-18T21:43:50.676Z,-28.7
2023-03-18T21:45:51.760Z,-28.6
2023-03-18T21:47:53.401Z,-28.6
2023-03-18T21:49:54.364Z,-28.7
2023-03-18T21:51:55.781Z,-28.4
2023-03-18T21:53:56.784Z,-28.3
2023-03-18T21:55:57.862Z,-28.3
2023-03-18T22:00:01.081Z,-28.6
2023-03-18T22:02:02.047Z,-28.4
2023-03-18T22:04:03.450Z,-28.5
2023-03-18T22:06:04.971Z,-28
2023-03-18T22:10:07.548Z,-28
2023-03-18T22:12:08.911Z,-28.3
2023-03-18T22:14:10.751Z,-28.3
2023-03-18T22:16:12.280Z,-28.4
2023-03-18T22:20:15.120Z,-28.3
2023-03-18T22:22:16.748Z,-28.6
2023-03-18T22:24:18.055Z,-28.5
2023-03-18T22:26:19.338Z,-28.4
2023-03-18T22:30:22.139Z,-28.3
2023-03-18T22:32:23.483Z,-28.4
2023-03-18T22:36:26.166Z,-28.4
2023-03-18T22:38:27.645Z,-28.5
2023-03-18T22:40:28.639Z,-28
2023-03-18T22:42:30.428Z,-28.3
2023-03-18T22:44:31.528Z,-28.2
2023-03-18T22:46:32.531Z,-28.3
2023-03-18T22:48:33.859Z,-28.1
2023-03-18T22:52:36.548Z,-28.4
2023-03-18T22:54:37.750Z,-28.5
2023-03-18T22:56:38.714Z,-28.2
2023-03-18T22:58:39.842Z,-28.4
2023-03-18T23:04:45.054Z,-28.4
2023-03-18T23:06:47.001Z,-28.2
2023-03-18T23:08:48.236Z,-28.1
2023-03-18T23:10:50.032Z,-27.9
2023-03-18T23:12:51.485Z,-28.2
2023-03-18T23:14:52.853Z,-28.2
2023-03-18T23:16:53.820Z,-28.2
2023-03-18T23:18:55.204Z,-28.3
2023-03-18T23:20:56.173Z,-28
2023-03-18T23:22:57.702Z,-28.4
2023-03-18T23:24:59.291Z,-27.9
2023-03-18T23:27:00.824Z,-28.2
2023-03-18T23:29:02.121Z,-27.8
2023-03-18T23:31:04.085Z,-28
2023-03-18T23:33:05.961Z,-27.9
2023-03-18T23:35:07.186Z,-28.1
2023-03-18T23:37:08.434Z,-28
2023-03-18T23:39:09.427Z,-27.9
2023-03-18T23:41:11.355Z,-28
2023-03-18T23:43:13.349Z,-27.9
2023-03-18T23:47:15.890Z,-28.1
2023-03-18T23:49:17.109Z,-27.9
2023-03-18T23:51:18.327Z,-27.9
2023-03-18T23:53:19.426Z,-27.8
2023-03-18T23:55:32.933Z,-28
2023-03-18T23:57:21.924Z,-28.1
